Aviation Digital Data Service (ADDS)

Output produced by TAFs form (1930 UTC 17 February 2018)
found at http://aviationweather.gov/adds/tafs/
 
KVEL 171850Z 1719/1818 VRB03KT P6SM FEW250 
     FM180200 29006KT P6SM FEW120 FEW250 
     FM181600 VRB04KT P6SM FEW100 SCT200